sensor_id;sensor_type;location;lat;lon;timestamp;pressure;altitude;pressure_sealevel;temperature;humidity
15932;BME280;8065;49.520;11.284;2023-08-20T00:02:10;97792.81;;;27.42;78.85
15932;BME280;8065;49.520;11.284;2023-08-20T00:04:39;97801.44;;;27.41;79.20
15932;BME280;8065;49.520;11.284;2023-08-20T00:07:08;97804.72;;;27.52;78.84
15932;BME280;8065;49.520;11.284;2023-08-20T00:09:36;97805.00;;;27.58;78.22
15932;BME280;8065;49.520;11.284;2023-08-20T00:12:05;97799.81;;;27.63;77.29
15932;BME280;8065;49.520;11.284;2023-08-20T00:14:54;97800.94;;;27.46;78.47
15932;BME280;8065;49.520;11.284;2023-08-20T00:17:24;97801.22;;;27.52;78.20
15932;BME280;8065;49.520;11.284;2023-08-20T00:19:54;97812.72;;;27.23;78.51
15932;BME280;8065;49.520;11.284;2023-08-20T00:22:24;97804.22;;;26.98;80.18
15932;BME280;8065;49.520;11.284;2023-08-20T00:24:53;97807.47;;;26.89;81.06
15932;BME280;8065;49.520;11.284;2023-08-20T00:27:22;97806.44;;;26.83;81.27
15932;BME280;8065;49.520;11.284;2023-08-20T00:29:50;97801.34;;;26.85;80.73
15932;BME280;8065;49.520;11.284;2023-08-20T00:32:21;97800.19;;;26.63;82.28
15932;BME280;8065;49.520;11.284;2023-08-20T00:34:49;97795.56;;;26.60;82.45
15932;BME280;8065;49.520;11.284;2023-08-20T00:37:17;97800.38;;;26.52;82.50
15932;BME280;8065;49.520;11.284;2023-08-20T00:39:45;97801.97;;;26.50;82.67
15932;BME280;8065;49.520;11.284;2023-08-20T00:42:14;97799.78;;;26.41;82.75
15932;BME280;8065;49.520;11.284;2023-08-20T00:44:42;97807.53;;;26.42;82.94
15932;BME280;8065;49.520;11.284;2023-08-20T00:47:12;97797.53;;;26.36;83.34
15932;BME280;8065;49.520;11.284;2023-08-20T00:49:43;97799.84;;;26.37;82.81
15932;BME280;8065;49.520;11.284;2023-08-20T00:52:12;97802.28;;;26.28;84.03
15932;BME280;8065;49.520;11.284;2023-08-20T00:54:44;97796.41;;;26.30;83.82
15932;BME280;8065;49.520;11.284;2023-08-20T00:57:13;97800.75;;;26.27;83.52
15932;BME280;8065;49.520;11.284;2023-08-20T00:59:42;97796.28;;;26.40;83.26
15932;BME280;8065;49.520;11.284;2023-08-20T01:02:11;97793.13;;;26.42;83.40
15932;BME280;8065;49.520;11.284;2023-08-20T01:04:39;97803.06;;;26.29;83.81
15932;BME280;8065;49.520;11.284;2023-08-20T01:07:16;97797.06;;;26.14;84.83
15932;BME280;8065;49.520;11.284;2023-08-20T01:09:51;97794.75;;;26.12;84.50
15932;BME280;8065;49.520;11.284;2023-08-20T01:12:22;97800.75;;;26.27;84.10
15932;BME280;8065;49.520;11.284;2023-08-20T01:14:50;97798.38;;;26.29;84.28
15932;BME280;8065;49.520;11.284;2023-08-20T01:17:19;97795.97;;;26.35;83.66
15932;BME280;8065;49.520;11.284;2023-08-20T01:19:47;97800.31;;;26.32;84.25
15932;BME280;8065;49.520;11.284;2023-08-20T01:22:38;97799.19;;;26.26;83.88
15932;BME280;8065;49.520;11.284;2023-08-20T01:25:18;97798.03;;;26.27;83.85
15932;BME280;8065;49.520;11.284;2023-08-20T01:28:00;97806.31;;;26.20;84.32
15932;BME280;8065;49.520;11.284;2023-08-20T01:30:34;97807.78;;;26.25;84.37
15932;BME280;8065;49.520;11.284;2023-08-20T01:33:03;97806.19;;;26.27;84.44
15932;BME280;8065;49.520;11.284;2023-08-20T01:35:31;97810.03;;;26.33;84.37
15932;BME280;8065;49.520;11.284;2023-08-20T01:38:00;97807.84;;;26.21;84.73
15932;BME280;8065;49.520;11.284;2023-08-20T01:40:28;97814.06;;;26.22;84.15
15932;BME280;8065;49.520;11.284;2023-08-20T01:42:57;97815.00;;;26.11;84.81
15932;BME280;8065;49.520;11.284;2023-08-20T01:45:25;97822.88;;;26.06;85.14
15932;BME280;8065;49.520;11.284;2023-08-20T01:47:56;97822.88;;;26.06;85.42
15932;BME280;8065;49.520;11.284;2023-08-20T01:50:24;97819.72;;;26.07;84.56
15932;BME280;8065;49.520;11.284;2023-08-20T01:52:53;97822.66;;;26.20;84.24
15932;BME280;8065;49.520;11.284;2023-08-20T01:55:21;97822.00;;;26.12;84.71
15932;BME280;8065;49.520;11.284;2023-08-20T01:57:49;97821.84;;;26.23;84.71
15932;BME280;8065;49.520;11.284;2023-08-20T02:00:17;97825.13;;;26.11;85.11
15932;BME280;8065;49.520;11.284;2023-08-20T02:02:46;97836.69;;;26.19;84.78
15932;BME280;8065;49.520;11.284;2023-08-20T02:05:17;97834.03;;;26.15;84.80
15932;BME280;8065;49.520;11.284;2023-08-20T02:07:45;97830.56;;;26.11;85.27
15932;BME280;8065;49.520;11.284;2023-08-20T02:10:13;97833.41;;;26.04;85.67
15932;BME280;8065;49.520;11.284;2023-08-20T02:12:42;97829.13;;;26.03;85.63
15932;BME280;8065;49.520;11.284;2023-08-20T02:15:10;97827.38;;;25.93;85.73
15932;BME280;8065;49.520;11.284;2023-08-20T02:17:39;97832.34;;;25.98;84.96
15932;BME280;8065;49.520;11.284;2023-08-20T02:20:08;97832.75;;;25.96;85.30
15932;BME280;8065;49.520;11.284;2023-08-20T02:22:39;97831.94;;;25.99;84.93
15932;BME280;8065;49.520;11.284;2023-08-20T02:25:08;97830.09;;;25.93;85.97
15932;BME280;8065;49.520;11.284;2023-08-20T02:27:36;97832.22;;;26.05;85.36
15932;BME280;8065;49.520;11.284;2023-08-20T02:30:06;97835.97;;;26.14;84.37
15932;BME280;8065;49.520;11.284;2023-08-20T02:32:34;97838.75;;;26.11;84.59
15932;BME280;8065;49.520;11.284;2023-08-20T02:35:03;97832.28;;;26.01;84.43
15932;BME280;8065;49.520;11.284;2023-08-20T02:37:33;97834.59;;;26.03;84.96
15932;BME280;8065;49.520;11.284;2023-08-20T02:40:05;97839.97;;;26.06;85.10
15932;BME280;8065;49.520;11.284;2023-08-20T02:42:34;97831.41;;;26.08;84.88
15932;BME280;8065;49.520;11.284;2023-08-20T02:45:02;97830.00;;;26.00;85.63
15932;BME280;8065;49.520;11.284;2023-08-20T02:47:31;97823.91;;;25.89;85.75
15932;BME280;8065;49.520;11.284;2023-08-20T02:49:59;97826.66;;;25.89;86.19
15932;BME280;8065;49.520;11.284;2023-08-20T02:52:28;97832.56;;;25.84;86.51
15932;BME280;8065;49.520;11.284;2023-08-20T02:54:56;97830.19;;;25.86;86.00
15932;BME280;8065;49.520;11.284;2023-08-20T02:57:27;97827.94;;;25.80;86.53
15932;BME280;8065;49.520;11.284;2023-08-20T02:59:55;97826.38;;;25.79;86.30
15932;BME280;8065;49.520;11.284;2023-08-20T03:02:23;97821.75;;;25.76;85.99
15932;BME280;8065;49.520;11.284;2023-08-20T03:04:52;97821.13;;;25.65;86.66
15932;BME280;8065;49.520;11.284;2023-08-20T03:07:21;97820.38;;;25.61;86.90
15932;BME280;8065;49.520;11.284;2023-08-20T03:09:49;97827.34;;;25.62;86.73
15932;BME280;8065;49.520;11.284;2023-08-20T03:12:17;97823.03;;;25.68;86.95
15932;BME280;8065;49.520;11.284;2023-08-20T03:14:48;97822.56;;;25.73;86.75
15932;BME280;8065;49.520;11.284;2023-08-20T03:17:17;97818.63;;;25.78;85.66
15932;BME280;8065;49.520;11.284;2023-08-20T03:19:54;97820.94;;;25.79;86.18
15932;BME280;8065;49.520;11.284;2023-08-20T03:22:23;97819.94;;;25.66;86.81
15932;BME280;8065;49.520;11.284;2023-08-20T03:24:52;97817.13;;;25.73;85.76
15932;BME280;8065;49.520;11.284;2023-08-20T03:27:20;97823.03;;;25.68;85.96
15932;BME280;8065;49.520;11.284;2023-08-20T03:29:51;97820.00;;;25.59;86.66
15932;BME280;8065;49.520;11.284;2023-08-20T03:32:20;97823.53;;;25.56;86.94
15932;BME280;8065;49.520;11.284;2023-08-20T03:34:48;97824.34;;;25.53;86.73
15932;BME280;8065;49.520;11.284;2023-08-20T03:37:18;97821.22;;;25.55;87.14
15932;BME280;8065;49.520;11.284;2023-08-20T03:39:46;97822.00;;;25.55;86.22
15932;BME280;8065;49.520;11.284;2023-08-20T03:42:15;97828.25;;;25.52;86.60
15932;BME280;8065;49.520;11.284;2023-08-20T03:44:43;97823.69;;;25.45;87.30
15932;BME280;8065;49.520;11.284;2023-08-20T03:47:14;97824.34;;;25.53;86.58
15932;BME280;8065;49.520;11.284;2023-08-20T03:49:45;97825.53;;;25.52;86.95
15932;BME280;8065;49.520;11.284;2023-08-20T03:52:14;97825.53;;;25.52;86.64
15932;BME280;8065;49.520;11.284;2023-08-20T03:54:42;97819.69;;;25.54;86.33
15932;BME280;8065;49.520;11.284;2023-08-20T03:57:11;97828.63;;;25.54;86.34
15932;BME280;8065;49.520;11.284;2023-08-20T03:59:39;97828.19;;;25.59;86.34
15932;BME280;8065;49.520;11.284;2023-08-20T04:02:07;97834.38;;;25.60;85.63
15932;BME280;8065;49.520;11.284;2023-08-20T04:04:38;97836.34;;;25.59;85.82
15932;BME280;8065;49.520;11.284;2023-08-20T04:07:06;97839.84;;;25.60;86.22
15932;BME280;8065;49.520;11.284;2023-08-20T04:09:35;97843.69;;;25.62;85.81
15932;BME280;8065;49.520;11.284;2023-08-20T04:12:04;97840.69;;;25.53;86.03
15932;BME280;8065;49.520;11.284;2023-08-20T04:14:33;97841.97;;;25.45;86.72
15932;BME280;8065;49.520;11.284;2023-08-20T04:17:01;97845.97;;;25.33;87.11
15932;BME280;8065;49.520;11.284;2023-08-20T04:19:29;97844.13;;;25.27;86.82
15932;BME280;8065;49.520;11.284;2023-08-20T04:22:00;97850.78;;;25.22;86.85
15932;BME280;8065;49.520;11.284;2023-08-20T04:24:28;97843.44;;;25.15;87.31
15932;BME280;8065;49.520;11.284;2023-08-20T04:26:57;97842.66;;;25.19;87.07
15932;BME280;8065;49.520;11.284;2023-08-20T04:29:25;97845.66;;;25.28;87.01
15932;BME280;8065;49.520;11.284;2023-08-20T04:31:53;97845.94;;;25.37;86.88
15932;BME280;8065;49.520;11.284;2023-08-20T04:34:21;97845.09;;;25.43;86.49
15932;BME280;8065;49.520;11.284;2023-08-20T04:36:50;97856.28;;;25.49;86.49
15932;BME280;8065;49.520;11.284;2023-08-20T04:39:21;97846.94;;;25.50;86.82
15932;BME280;8065;49.520;11.284;2023-08-20T04:41:49;97847.00;;;25.46;86.42
15932;BME280;8065;49.520;11.284;2023-08-20T04:44:18;97845.13;;;25.40;86.62
15932;BME280;8065;49.520;11.284;2023-08-20T04:46:46;97854.09;;;25.37;86.82
15932;BME280;8065;49.520;11.284;2023-08-20T04:49:14;97859.47;;;25.44;86.46
15932;BME280;8065;49.520;11.284;2023-08-20T04:51:42;97853.34;;;25.36;87.30
15932;BME280;8065;49.520;11.284;2023-08-20T04:54:11;97858.00;;;25.36;86.80
15932;BME280;8065;49.520;11.284;2023-08-20T04:56:41;97855.59;;;25.41;86.39
15932;BME280;8065;49.520;11.284;2023-08-20T04:59:10;97861.38;;;25.47;86.71
15932;BME280;8065;49.520;11.284;2023-08-20T05:01:38;97861.38;;;25.47;86.63
15932;BME280;8065;49.520;11.284;2023-08-20T05:04:06;97860.28;;;25.41;86.73
15932;BME280;8065;49.520;11.284;2023-08-20T05:06:34;97866.03;;;25.46;86.65
15932;BME280;8065;49.520;11.284;2023-08-20T05:09:03;97865.72;;;25.41;87.21
15932;BME280;8065;49.520;11.284;2023-08-20T05:11:31;97859.38;;;25.51;87.00
15932;BME280;8065;49.520;11.284;2023-08-20T05:14:02;97863.56;;;25.59;86.21
15932;BME280;8065;49.520;11.284;2023-08-20T05:16:31;97870.09;;;25.69;85.93
15932;BME280;8065;49.520;11.284;2023-08-20T05:18:59;97874.00;;;25.68;85.73
15932;BME280;8065;49.520;11.284;2023-08-20T05:21:27;97877.13;;;25.66;86.43
15932;BME280;8065;49.520;11.284;2023-08-20T05:23:55;97872.41;;;25.70;85.55
15932;BME280;8065;49.520;11.284;2023-08-20T05:26:24;97874.22;;;25.80;85.93
15932;BME280;8065;49.520;11.284;2023-08-20T05:28:52;97882.28;;;25.88;85.36
15932;BME280;8065;49.520;11.284;2023-08-20T05:31:23;97880.72;;;25.90;85.44
15932;BME280;8065;49.520;11.284;2023-08-20T05:33:51;97873.00;;;25.85;85.68
15932;BME280;8065;49.520;11.284;2023-08-20T05:36:19;97880.47;;;25.77;85.44
15932;BME280;8065;49.520;11.284;2023-08-20T05:38:48;97878.84;;;25.84;85.17
15932;BME280;8065;49.520;11.284;2023-08-20T05:41:16;97888.88;;;25.90;85.55
15932;BME280;8065;49.520;11.284;2023-08-20T05:43:44;97896.19;;;25.97;85.34
15932;BME280;8065;49.520;11.284;2023-08-20T05:46:12;97897.59;;;26.05;84.63
15932;BME280;8065;49.520;11.284;2023-08-20T05:48:43;97897.56;;;26.08;84.84
15932;BME280;8065;49.520;11.284;2023-08-20T05:51:12;97903.72;;;26.12;84.90
15932;BME280;8065;49.520;11.284;2023-08-20T05:53:40;97902.03;;;26.22;84.84
15932;BME280;8065;49.520;11.284;2023-08-20T05:56:08;97900.00;;;26.30;83.70
15932;BME280;8065;49.520;11.284;2023-08-20T05:58:36;97894.41;;;26.10;83.85
15932;BME280;8065;49.520;11.284;2023-08-20T06:01:05;97895.88;;;26.18;83.28
15932;BME280;8065;49.520;11.284;2023-08-20T06:03:33;97900.50;;;26.21;83.86
15932;BME280;8065;49.520;11.284;2023-08-20T06:06:04;97896.47;;;26.33;83.52
15932;BME280;8065;49.520;11.284;2023-08-20T06:08:32;97893.22;;;26.41;83.17
15932;BME280;8065;49.520;11.284;2023-08-20T06:11:00;97890.84;;;26.43;83.03
15932;BME280;8065;49.520;11.284;2023-08-20T06:13:29;97889.16;;;26.53;82.80
15932;BME280;8065;49.520;11.284;2023-08-20T06:15:57;97893.38;;;26.58;82.06
15932;BME280;8065;49.520;11.284;2023-08-20T06:18:25;97887.97;;;26.54;81.29
15932;BME280;8065;49.520;11.284;2023-08-20T06:20:53;97893.22;;;26.41;81.16
15932;BME280;8065;49.520;11.284;2023-08-20T06:23:24;97890.97;;;26.36;82.53
15932;BME280;8065;49.520;11.284;2023-08-20T06:25:53;97889.97;;;26.50;82.21
15932;BME280;8065;49.520;11.284;2023-08-20T06:28:21;97893.06;;;26.52;81.69
15932;BME280;8065;49.520;11.284;2023-08-20T06:30:49;97888.59;;;26.38;80.96
15932;BME280;8065;49.520;11.284;2023-08-20T06:33:18;97891.25;;;26.69;81.92
15932;BME280;8065;49.520;11.284;2023-08-20T06:35:46;97882.00;;;26.63;81.09
15932;BME280;8065;49.520;11.284;2023-08-20T06:38:14;97881.94;;;26.66;81.18
15932;BME280;8065;49.520;11.284;2023-08-20T06:40:45;97886.09;;;26.94;80.36
15932;BME280;8065;49.520;11.284;2023-08-20T06:43:13;97875.03;;;27.05;80.32
15932;BME280;8065;49.520;11.284;2023-08-20T06:45:41;97877.94;;;27.18;79.82
15932;BME280;8065;49.520;11.284;2023-08-20T06:48:10;97883.25;;;27.25;80.48
15932;BME280;8065;49.520;11.284;2023-08-20T06:50:38;97884.72;;;27.29;79.74
15932;BME280;8065;49.520;11.284;2023-08-20T06:53:06;97890.97;;;27.50;79.36
15932;BME280;8065;49.520;11.284;2023-08-20T06:55:34;97893.56;;;27.57;79.27
15932;BME280;8065;49.520;11.284;2023-08-20T06:58:05;97894.94;;;27.68;79.26
15932;BME280;8065;49.520;11.284;2023-08-20T07:00:34;97895.63;;;27.72;78.50
15932;BME280;8065;49.520;11.284;2023-08-20T07:03:03;97899.22;;;27.86;78.69
15932;BME280;8065;49.520;11.284;2023-08-20T07:05:31;97903.78;;;27.92;78.35
15932;BME280;8065;49.520;11.284;2023-08-20T07:07:59;97900.63;;;27.94;77.45
15932;BME280;8065;49.520;11.284;2023-08-20T07:10:28;97906.63;;;28.05;76.79
15932;BME280;8065;49.520;11.284;2023-08-20T07:12:56;97909.78;;;28.23;76.67
15932;BME280;8065;49.520;11.284;2023-08-20T07:15:27;97908.16;;;28.06;76.64
15932;BME280;8065;49.520;11.284;2023-08-20T07:17:55;97901.63;;;28.20;75.95
15932;BME280;8065;49.520;11.284;2023-08-20T07:20:23;97903.81;;;28.28;75.24
15932;BME280;8065;49.520;11.284;2023-08-20T07:22:51;97911.34;;;28.41;74.88
15932;BME280;8065;49.520;11.284;2023-08-20T07:25:20;97922.94;;;28.61;74.89
15932;BME280;8065;49.520;11.284;2023-08-20T07:27:46;97919.63;;;28.69;75.39
15932;BME280;8065;49.520;11.284;2023-08-20T07:30:16;97917.66;;;28.70;72.93
15932;BME280;8065;49.520;11.284;2023-08-20T07:32:47;97918.16;;;28.81;73.06
15932;BME280;8065;49.520;11.284;2023-08-20T07:35:15;97914.59;;;29.00;72.94
15932;BME280;8065;49.520;11.284;2023-08-20T07:37:44;97918.75;;;29.21;72.90
15932;BME280;8065;49.520;11.284;2023-08-20T07:40:12;97919.03;;;29.11;69.62
15932;BME280;8065;49.520;11.284;2023-08-20T07:42:41;97912.13;;;29.35;68.86
15932;BME280;8065;49.520;11.284;2023-08-20T07:45:10;97927.53;;;29.45;68.65
15932;BME280;8065;49.520;11.284;2023-08-20T07:47:38;97924.25;;;29.50;69.54
15932;BME280;8065;49.520;11.284;2023-08-20T07:50:10;97921.97;;;29.61;69.88
15932;BME280;8065;49.520;11.284;2023-08-20T07:52:38;97921.72;;;29.85;67.32
15932;BME280;8065;49.520;11.284;2023-08-20T07:55:08;97931.31;;;30.06;66.95
15932;BME280;8065;49.520;11.284;2023-08-20T07:57:36;97922.56;;;30.11;65.57
15932;BME280;8065;49.520;11.284;2023-08-20T08:00:05;97924.44;;;30.26;65.81
15932;BME280;8065;49.520;11.284;2023-08-20T08:02:34;97922.09;;;30.38;63.94
15932;BME280;8065;49.520;11.284;2023-08-20T08:05:02;97929.03;;;30.42;64.28
15932;BME280;8065;49.520;11.284;2023-08-20T08:07:33;97931.66;;;30.46;63.97
15932;BME280;8065;49.520;11.284;2023-08-20T08:10:01;97928.16;;;30.58;65.40
15932;BME280;8065;49.520;11.284;2023-08-20T08:12:30;97927.94;;;30.65;63.63
15932;BME280;8065;49.520;11.284;2023-08-20T08:14:58;97924.97;;;30.72;63.99
15932;BME280;8065;49.520;11.284;2023-08-20T08:17:26;97924.63;;;30.83;64.08
15932;BME280;8065;49.520;11.284;2023-08-20T08:19:54;97925.38;;;30.96;63.86
15932;BME280;8065;49.520;11.284;2023-08-20T08:22:23;97924.44;;;31.12;64.45
15932;BME280;8065;49.520;11.284;2023-08-20T08:24:54;97931.31;;;31.29;65.43
15932;BME280;8065;49.520;11.284;2023-08-20T08:27:22;97926.09;;;31.44;65.93
15932;BME280;8065;49.520;11.284;2023-08-20T08:29:51;97926.69;;;31.60;65.15
15932;BME280;8065;49.520;11.284;2023-08-20T08:32:19;97929.44;;;31.82;64.97
15932;BME280;8065;49.520;11.284;2023-08-20T08:34:47;97930.91;;;31.96;64.75
15932;BME280;8065;49.520;11.284;2023-08-20T08:37:15;97931.53;;;32.00;66.04
15932;BME280;8065;49.520;11.284;2023-08-20T08:39:44;97921.81;;;32.17;65.43
15932;BME280;8065;49.520;11.284;2023-08-20T08:42:16;97919.38;;;32.19;64.42
15932;BME280;8065;49.520;11.284;2023-08-20T08:44:45;97930.59;;;32.25;65.33
15932;BME280;8065;49.520;11.284;2023-08-20T08:47:13;97929.28;;;32.39;65.49
15932;BME280;8065;49.520;11.284;2023-08-20T08:49:42;97931.06;;;32.64;65.93
15932;BME280;8065;49.520;11.284;2023-08-20T08:52:11;97938.88;;;32.74;65.24
15932;BME280;8065;49.520;11.284;2023-08-20T08:54:40;97934.06;;;32.87;65.90
15932;BME280;8065;49.520;11.284;2023-08-20T08:57:10;97935.44;;;32.92;64.69
15932;BME280;8065;49.520;11.284;2023-08-20T08:59:41;97943.41;;;33.08;65.41
15932;BME280;8065;49.520;11.284;2023-08-20T09:02:11;97938.66;;;33.27;64.75
15932;BME280;8065;49.520;11.284;2023-08-20T09:04:40;97934.88;;;33.43;64.35
15932;BME280;8065;49.520;11.284;2023-08-20T09:07:11;97933.50;;;33.57;61.55
15932;BME280;8065;49.520;11.284;2023-08-20T09:09:42;97939.91;;;33.63;59.11
15932;BME280;8065;49.520;11.284;2023-08-20T09:12:14;97935.47;;;33.65;58.12
15932;BME280;8065;49.520;11.284;2023-08-20T09:14:47;97943.13;;;33.79;58.45
15932;BME280;8065;49.520;11.284;2023-08-20T09:17:16;97937.59;;;33.88;57.69
15932;BME280;8065;49.520;11.284;2023-08-20T09:19:46;97941.09;;;33.98;57.41
15932;BME280;8065;49.520;11.284;2023-08-20T09:22:15;97931.69;;;34.14;57.54
15932;BME280;8065;49.520;11.284;2023-08-20T09:24:45;97937.66;;;34.31;56.55
15932;BME280;8065;49.520;11.284;2023-08-20T09:27:14;97940.03;;;34.47;55.44
15932;BME280;8065;49.520;11.284;2023-08-20T09:29:49;97942.88;;;34.62;55.45
15932;BME280;8065;49.520;11.284;2023-08-20T09:32:22;97937.75;;;34.69;55.46
15932;BME280;8065;49.520;11.284;2023-08-20T09:34:53;97941.09;;;34.73;54.50
15932;BME280;8065;49.520;11.284;2023-08-20T09:37:22;97943.78;;;34.92;54.71
15932;BME280;8065;49.520;11.284;2023-08-20T09:39:51;97942.56;;;34.93;55.58
15932;BME280;8065;49.520;11.284;2023-08-20T09:42:20;97949.03;;;34.90;55.51
15932;BME280;8065;49.520;11.284;2023-08-20T09:44:52;97936.84;;;35.20;55.36
15932;BME280;8065;49.520;11.284;2023-08-20T09:47:23;97935.50;;;35.39;54.66
15932;BME280;8065;49.520;11.284;2023-08-20T09:49:53;97948.56;;;35.54;51.67
15932;BME280;8065;49.520;11.284;2023-08-20T09:52:27;97946.66;;;35.60;51.42
15932;BME280;8065;49.520;11.284;2023-08-20T09:55:00;97936.75;;;35.68;51.10
15932;BME280;8065;49.520;11.284;2023-08-20T09:57:33;97934.13;;;35.88;50.93
15932;BME280;8065;49.520;11.284;2023-08-20T10:00:08;97942.72;;;36.05;50.29
15932;BME280;8065;49.520;11.284;2023-08-20T10:02:38;97940.97;;;36.22;51.02
15932;BME280;8065;49.520;11.284;2023-08-20T10:05:08;97939.19;;;36.34;50.27
15932;BME280;8065;49.520;11.284;2023-08-20T10:07:37;97938.00;;;36.40;50.01
15932;BME280;8065;49.520;11.284;2023-08-20T10:10:07;97931.84;;;36.51;49.31
15932;BME280;8065;49.520;11.284;2023-08-20T10:12:37;97933.56;;;36.28;49.62
15932;BME280;8065;49.520;11.284;2023-08-20T10:15:11;97928.66;;;36.38;50.46
15932;BME280;8065;49.520;11.284;2023-08-20T10:17:42;97931.44;;;36.38;50.13
15932;BME280;8065;49.520;11.284;2023-08-20T10:20:14;97931.16;;;36.36;47.63
15932;BME280;8065;49.520;11.284;2023-08-20T10:22:44;97932.41;;;36.05;48.23
15932;BME280;8065;49.520;11.284;2023-08-20T10:25:23;97930.06;;;36.48;48.42
15932;BME280;8065;49.520;11.284;2023-08-20T10:27:52;97929.25;;;36.62;47.24
15932;BME280;8065;49.520;11.284;2023-08-20T10:30:26;97924.28;;;36.66;47.27
15932;BME280;8065;49.520;11.284;2023-08-20T10:32:56;97923.88;;;36.73;47.09
15932;BME280;8065;49.520;11.284;2023-08-20T10:35:26;97925.16;;;36.93;48.08
15932;BME280;8065;49.520;11.284;2023-08-20T10:38:03;97933.63;;;37.04;46.98
15932;BME280;8065;49.520;11.284;2023-08-20T10:40:48;97937.19;;;37.25;47.60
15932;BME280;8065;49.520;11.284;2023-08-20T10:43:32;97939.13;;;37.45;46.79
15932;BME280;8065;49.520;11.284;2023-08-20T10:46:15;97923.44;;;37.62;45.95
15932;BME280;8065;49.520;11.284;2023-08-20T10:48:47;97934.22;;;37.80;46.40
15932;BME280;8065;49.520;11.284;2023-08-20T10:51:17;97927.16;;;37.79;45.42
15932;BME280;8065;49.520;11.284;2023-08-20T10:54:03;97923.34;;;37.77;45.97
15932;BME280;8065;49.520;11.284;2023-08-20T10:56:41;97924.53;;;37.70;45.29
15932;BME280;8065;49.520;11.284;2023-08-20T10:59:15;97917.53;;;37.54;44.72
15932;BME280;8065;49.520;11.284;2023-08-20T11:01:47;97936.03;;;37.37;44.19
15932;BME280;8065;49.520;11.284;2023-08-20T11:04:20;97923.41;;;37.36;44.33
15932;BME280;8065;49.520;11.284;2023-08-20T11:06:51;97923.06;;;37.28;44.21
15932;BME280;8065;49.520;11.284;2023-08-20T11:09:21;97921.94;;;37.40;43.93
15932;BME280;8065;49.520;11.284;2023-08-20T11:11:50;97918.19;;;37.44;45.68
15932;BME280;8065;49.520;11.284;2023-08-20T11:14:19;97917.34;;;37.58;45.22
15932;BME280;8065;49.520;11.284;2023-08-20T11:16:51;97917.38;;;37.63;45.30
15932;BME280;8065;49.520;11.284;2023-08-20T11:19:21;97914.28;;;37.56;44.74
15932;BME280;8065;49.520;11.284;2023-08-20T11:21:50;97912.00;;;37.54;44.83
15932;BME280;8065;49.520;11.284;2023-08-20T11:24:19;97918.31;;;37.55;45.30
15932;BME280;8065;49.520;11.284;2023-08-20T11:26:47;97909.72;;;37.53;44.07
15932;BME280;8065;49.520;11.284;2023-08-20T11:29:17;97907.78;;;37.85;44.77
15932;BME280;8065;49.520;11.284;2023-08-20T11:31:46;97902.81;;;37.94;45.45
15932;BME280;8065;49.520;11.284;2023-08-20T11:34:18;97898.78;;;37.95;44.24
15932;BME280;8065;49.520;11.284;2023-08-20T11:36:46;97896.91;;;37.81;44.20
15932;BME280;8065;49.520;11.284;2023-08-20T11:39:16;97896.78;;;37.70;43.96
15932;BME280;8065;49.520;11.284;2023-08-20T11:41:45;97901.47;;;37.84;43.94
15932;BME280;8065;49.520;11.284;2023-08-20T11:44:19;97897.16;;;38.15;44.11
15932;BME280;8065;49.520;11.284;2023-08-20T11:46:48;97894.53;;;38.37;43.78
15932;BME280;8065;49.520;11.284;2023-08-20T11:49:26;97892.09;;;38.50;43.38
15932;BME280;8065;49.520;11.284;2023-08-20T11:51:56;97893.63;;;38.14;46.80
15932;BME280;8065;49.520;11.284;2023-08-20T11:54:24;97892.13;;;38.13;45.58
15932;BME280;8065;49.520;11.284;2023-08-20T11:57:01;97896.81;;;38.01;45.03
15932;BME280;8065;49.520;11.284;2023-08-20T11:59:30;97899.84;;;38.03;44.91
15932;BME280;8065;49.520;11.284;2023-08-20T12:02:00;97896.91;;;37.81;45.89
15932;BME280;8065;49.520;11.284;2023-08-20T12:04:31;97900.22;;;37.85;46.63
15932;BME280;8065;49.520;11.284;2023-08-20T12:07:03;97896.81;;;38.01;44.31
15932;BME280;8065;49.520;11.284;2023-08-20T12:09:33;97891.34;;;38.13;43.72
15932;BME280;8065;49.520;11.284;2023-08-20T12:12:02;97885.06;;;38.18;42.79
15932;BME280;8065;49.520;11.284;2023-08-20T12:14:30;97886.94;;;38.32;43.37
15932;BME280;8065;49.520;11.284;2023-08-20T12:16:59;97880.09;;;38.27;43.63
15932;BME280;8065;49.520;11.284;2023-08-20T12:19:31;97880.97;;;38.50;42.64
15932;BME280;8065;49.520;11.284;2023-08-20T12:21:59;97883.00;;;38.13;44.39
15932;BME280;8065;49.520;11.284;2023-08-20T12:24:27;97876.06;;;37.97;43.83
15932;BME280;8065;49.520;11.284;2023-08-20T12:26:56;97881.19;;;38.04;44.26
15932;BME280;8065;49.520;11.284;2023-08-20T12:29:24;97880.41;;;38.03;43.24
15932;BME280;8065;49.520;11.284;2023-08-20T12:31:52;97867.97;;;37.93;42.92
15932;BME280;8065;49.520;11.284;2023-08-20T12:34:20;97864.84;;;38.12;42.82
15932;BME280;8065;49.520;11.284;2023-08-20T12:36:51;97864.38;;;38.19;43.79
15932;BME280;8065;49.520;11.284;2023-08-20T12:39:20;97864.34;;;37.82;42.87
15932;BME280;8065;49.520;11.284;2023-08-20T12:41:49;97864.44;;;38.30;43.24
15932;BME280;8065;49.520;11.284;2023-08-20T12:44:17;97857.25;;;38.55;43.82
15932;BME280;8065;49.520;11.284;2023-08-20T12:46:45;97858.50;;;38.48;45.12
15932;BME280;8065;49.520;11.284;2023-08-20T12:49:14;97852.88;;;38.85;43.12
15932;BME280;8065;49.520;11.284;2023-08-20T12:51:42;97842.03;;;38.93;43.44
15932;BME280;8065;49.520;11.284;2023-08-20T12:54:13;97844.66;;;39.24;42.91
15932;BME280;8065;49.520;11.284;2023-08-20T12:56:42;97847.19;;;39.22;42.93
15932;BME280;8065;49.520;11.284;2023-08-20T12:59:10;97847.13;;;39.00;42.74
15932;BME280;8065;49.520;11.284;2023-08-20T13:01:38;97854.69;;;38.94;42.90
15932;BME280;8065;49.520;11.284;2023-08-20T13:04:08;97852.19;;;39.07;42.65
15932;BME280;8065;49.520;11.284;2023-08-20T13:06:37;97849.72;;;39.31;42.76
15932;BME280;8065;49.520;11.284;2023-08-20T13:09:08;97845.19;;;39.40;42.63
15932;BME280;8065;49.520;11.284;2023-08-20T13:11:39;97846.69;;;39.29;42.51
15932;BME280;8065;49.520;11.284;2023-08-20T13:14:08;97842.88;;;39.27;42.88